Time;durP1;ratioP1;P1;durP2;ratioP2;P2;SDS_P1;SDS_P2;PMS_P1;PMS_P2;Temp;Humidity;BMP_temperature;BMP_pressure;BME280_temperature;BME280_humidity;BME280_pressure;Samples;Min_cycle;Max_cycle;Signal;HPM_P1;HPM_P2
2023/05/18 00:00:20;;;;;;;0.10;0.10;;;;;;;;;;6189394;23;20366;-75
2023/05/18 00:03:05;;;;;;;0.10;0.10;;;;;;;;;;6191342;23;20537;-75
2023/05/18 00:05:51;;;;;;;0.10;0.10;;;;;;;;;;6191399;23;20385;-75
2023/05/18 00:08:37;;;;;;;0.10;0.10;;;;;;;;;;6191299;23;20099;-75
2023/05/18 00:11:23;;;;;;;0.10;0.10;;;;;;;;;;6168768;23;20036;-75
2023/05/18 00:14:08;;;;;;;0.10;0.10;;;;;;;;;;6190945;23;20123;-75
2023/05/18 00:16:54;;;;;;;0.10;0.10;;;;;;;;;;6192576;23;20036;-75
2023/05/18 00:19:40;;;;;;;0.10;0.10;;;;;;;;;;6193469;23;20047;-75
2023/05/18 00:22:25;;;;;;;0.10;0.10;;;;;;;;;;6193017;23;20408;-75
2023/05/18 00:25:11;;;;;;;0.10;0.10;;;;;;;;;;6192443;23;20410;-75
2023/05/18 00:27:59;;;;;;;0.10;0.10;;;;;;;;;;6192135;23;20082;-75
2023/05/18 00:30:45;;;;;;;0.10;0.10;;;;;;;;;;6169904;23;20021;-75
2023/05/18 00:33:31;;;;;;;0.10;0.10;;;;;;;;;;6191480;23;20128;-75
2023/05/18 00:36:17;;;;;;;0.10;0.10;;;;;;;;;;6170400;23;20023;-75
2023/05/18 00:39:03;;;;;;;0.10;0.10;;;;;;;;;;6173457;23;20102;-75
2023/05/18 00:41:49;;;;;;;0.10;0.10;;;;;;;;;;6193119;23;20099;-75
2023/05/18 00:44:34;;;;;;;0.10;0.10;;;;;;;;;;6192520;23;20017;-75
2023/05/18 00:47:22;;;;;;;0.10;0.10;;;;;;;;;;6193755;23;20346;-75
2023/05/18 00:50:09;;;;;;;0.10;0.10;;;;;;;;;;6193074;23;20485;-75
2023/05/18 00:52:54;;;;;;;0.10;0.10;;;;;;;;;;6172706;23;20012;-75
2023/05/18 00:55:41;;;;;;;0.10;0.10;;;;;;;;;;6194375;23;20047;-75
2023/05/18 00:58:26;;;;;;;0.10;0.10;;;;;;;;;;6170399;23;20029;-75
2023/05/18 01:01:12;;;;;;;0.10;0.10;;;;;;;;;;6170220;23;20462;-75
2023/05/18 01:04:01;;;;;;;0.10;0.10;;;;;;;;;;6193058;23;20111;-75
2023/05/18 01:06:46;;;;;;;0.10;0.10;;;;;;;;;;6191456;23;20012;-75
2023/05/18 01:09:33;;;;;;;0.10;0.10;;;;;;;;;;6191677;23;20017;-75
2023/05/18 01:12:28;;;;;;;0.10;0.10;;;;;;;;;;6193544;23;20016;-75
2023/05/18 01:15:15;;;;;;;0.10;0.10;;;;;;;;;;6172448;23;20354;-75
2023/05/18 01:18:21;;;;;;;0.10;0.10;;;;;;;;;;6191292;23;20048;-75
2023/05/18 01:21:18;;;;;;;0.10;0.10;;;;;;;;;;6171508;23;20024;-76
2023/05/18 01:24:24;;;;;;;0.10;0.10;;;;;;;;;;6191986;23;20441;-75
2023/05/18 01:27:13;;;;;;;0.10;0.10;;;;;;;;;;6169592;23;20017;-75
2023/05/18 01:29:59;;;;;;;0.10;0.10;;;;;;;;;;6171211;23;20048;-75
2023/05/18 01:32:45;;;;;;;0.10;0.10;;;;;;;;;;6191319;23;20016;-75
2023/05/18 01:35:31;;;;;;;0.10;0.10;;;;;;;;;;6192704;23;20012;-75
2023/05/18 01:38:18;;;;;;;0.10;0.10;;;;;;;;;;6191229;23;20012;-75
2023/05/18 01:41:16;;;;;;;0.10;0.10;;;;;;;;;;6193313;23;20017;-75
2023/05/18 01:44:20;;;;;;;0.10;0.10;;;;;;;;;;6170052;23;20481;-75
2023/05/18 01:47:11;;;;;;;0.10;0.10;;;;;;;;;;6152169;23;20573;-75
2023/05/18 01:50:10;;;;;;;0.10;0.10;;;;;;;;;;6169279;23;20329;-75
2023/05/18 01:53:05;;;;;;;0.10;0.10;;;;;;;;;;6192873;23;20337;-75
2023/05/18 01:55:53;;;;;;;0.10;0.10;;;;;;;;;;6173107;23;20141;-75
2023/05/18 01:58:39;;;;;;;0.10;0.10;;;;;;;;;;6151001;23;20012;-75
2023/05/18 02:01:25;;;;;;;0.10;0.10;;;;;;;;;;6172027;23;20016;-74
2023/05/18 02:04:11;;;;;;;0.10;0.10;;;;;;;;;;6191679;23;20100;-75
2023/05/18 02:06:57;;;;;;;0.10;0.10;;;;;;;;;;6171637;23;20017;-75
2023/05/18 02:09:45;;;;;;;0.10;0.10;;;;;;;;;;6168528;23;20344;-75
2023/05/18 02:12:31;;;;;;;0.10;0.10;;;;;;;;;;6191180;23;20133;-75
2023/05/18 02:15:17;;;;;;;0.10;0.10;;;;;;;;;;6194171;23;20012;-75
2023/05/18 02:18:03;;;;;;;0.10;0.10;;;;;;;;;;6195397;23;20009;-75
2023/05/18 02:20:50;;;;;;;0.10;0.10;;;;;;;;;;6170347;23;20012;-75
2023/05/18 02:23:36;;;;;;;0.10;0.10;;;;;;;;;;6192336;23;20102;-75
2023/05/18 02:26:22;;;;;;;0.10;0.10;;;;;;;;;;6169900;23;20013;-75
2023/05/18 02:29:13;;;;;;;0.10;0.10;;;;;;;;;;6192136;23;20481;-75
2023/05/18 02:31:58;;;;;;;0.10;0.10;;;;;;;;;;6168396;23;20013;-75
2023/05/18 02:34:45;;;;;;;0.10;0.10;;;;;;;;;;6170141;23;20017;-75
2023/05/18 02:37:33;;;;;;;0.10;0.10;;;;;;;;;;6170238;23;20012;-75
2023/05/18 02:40:18;;;;;;;0.10;0.10;;;;;;;;;;6169137;23;20559;-75
2023/05/18 02:43:04;;;;;;;0.10;0.10;;;;;;;;;;6169033;23;20028;-75
2023/05/18 02:45:50;;;;;;;0.10;0.10;;;;;;;;;;6150810;23;20385;-75
2023/05/18 02:48:36;;;;;;;0.10;0.10;;;;;;;;;;6167895;23;20016;-75
2023/05/18 02:51:22;;;;;;;0.10;0.10;;;;;;;;;;6191389;23;20258;-74
2023/05/18 02:54:08;;;;;;;0.10;0.10;;;;;;;;;;6169866;23;20035;-75
2023/05/18 02:56:58;;;;;;;0.10;0.10;;;;;;;;;;6168894;23;20177;-75
2023/05/18 02:59:54;;;;;;;0.10;0.10;;;;;;;;;;6169115;23;20068;-75
2023/05/18 03:02:40;;;;;;;0.10;0.10;;;;;;;;;;6170130;23;20369;-75
2023/05/18 03:05:25;;;;;;;0.10;0.10;;;;;;;;;;6171518;23;20020;-75
2023/05/18 03:08:11;;;;;;;0.10;0.10;;;;;;;;;;6170307;23;20013;-75
2023/05/18 03:10:57;;;;;;;0.10;0.10;;;;;;;;;;6167644;23;20027;-75
2023/05/18 03:13:43;;;;;;;0.10;0.10;;;;;;;;;;6170041;23;20067;-75
2023/05/18 03:16:29;;;;;;;0.10;0.10;;;;;;;;;;6170474;23;20039;-75
2023/05/18 03:19:15;;;;;;;0.10;0.10;;;;;;;;;;6167912;23;20028;-74
2023/05/18 03:22:02;;;;;;;0.15;0.15;;;;;;;;;;6169457;23;20040;-75
2023/05/18 03:24:50;;;;;;;0.10;0.10;;;;;;;;;;6169321;23;20160;-74
2023/05/18 03:27:36;;;;;;;0.10;0.10;;;;;;;;;;6149395;23;20016;-75
2023/05/18 03:30:22;;;;;;;0.10;0.10;;;;;;;;;;6170555;23;20027;-75
2023/05/18 03:33:08;;;;;;;0.10;0.10;;;;;;;;;;6168175;23;20083;-75
2023/05/18 03:35:54;;;;;;;0.10;0.10;;;;;;;;;;6191113;23;20012;-75
2023/05/18 03:38:40;;;;;;;0.10;0.10;;;;;;;;;;6189443;23;20013;-75
2023/05/18 03:41:28;;;;;;;0.10;0.10;;;;;;;;;;6168120;23;20291;-75
2023/05/18 03:44:15;;;;;;;0.10;0.10;;;;;;;;;;6168591;23;20017;-75
2023/05/18 03:47:03;;;;;;;0.10;0.10;;;;;;;;;;6168694;23;20012;-75
2023/05/18 03:49:49;;;;;;;0.10;0.10;;;;;;;;;;6168180;23;20067;-75
2023/05/18 03:52:35;;;;;;;0.10;0.10;;;;;;;;;;6169496;23;20043;-75
2023/05/18 03:55:22;;;;;;;0.10;0.10;;;;;;;;;;6169641;23;20102;-75
2023/05/18 03:58:08;;;;;;;0.10;0.10;;;;;;;;;;6190076;23;20021;-75
2023/05/18 04:00:54;;;;;;;0.10;0.10;;;;;;;;;;6169650;23;20020;-75
2023/05/18 04:03:41;;;;;;;0.10;0.10;;;;;;;;;;6170410;23;20338;-75
2023/05/18 04:06:26;;;;;;;0.10;0.10;;;;;;;;;;6194100;23;20397;-74
2023/05/18 04:09:16;;;;;;;0.10;0.10;;;;;;;;;;6192472;23;20217;-75
2023/05/18 04:12:04;;;;;;;0.10;0.10;;;;;;;;;;6152244;23;20013;-74
2023/05/18 04:14:53;;;;;;;0.10;0.10;;;;;;;;;;6150719;23;20350;-75
2023/05/18 04:17:42;;;;;;;0.10;0.10;;;;;;;;;;6171064;23;20648;-75
2023/05/18 04:20:28;;;;;;;0.10;0.10;;;;;;;;;;6194720;23;20319;-75
2023/05/18 04:23:14;;;;;;;0.10;0.10;;;;;;;;;;6151611;23;20394;-75
2023/05/18 04:26:00;;;;;;;0.10;0.10;;;;;;;;;;6172447;23;20387;-75
2023/05/18 04:28:46;;;;;;;0.10;0.10;;;;;;;;;;6171396;23;20099;-75
2023/05/18 04:31:33;;;;;;;0.10;0.10;;;;;;;;;;6170012;23;20198;-75
2023/05/18 04:34:19;;;;;;;0.10;0.10;;;;;;;;;;6170371;23;20012;-75
2023/05/18 04:37:05;;;;;;;0.10;0.10;;;;;;;;;;6170300;23;20012;-75
2023/05/18 04:39:52;;;;;;;0.10;0.10;;;;;;;;;;6191297;23;20023;-75
2023/05/18 04:42:48;;;;;;;0.10;0.10;;;;;;;;;;6170761;23;20067;-75
2023/05/18 04:45:49;;;;;;;0.10;0.10;;;;;;;;;;6169742;23;20442;-75
2023/05/18 04:48:36;;;;;;;0.13;0.13;;;;;;;;;;6193783;23;20017;-75
2023/05/18 04:51:23;;;;;;;0.10;0.10;;;;;;;;;;6170089;23;20012;-75
2023/05/18 04:54:08;;;;;;;0.10;0.10;;;;;;;;;;6170848;23;20317;-75
2023/05/18 04:56:55;;;;;;;0.10;0.10;;;;;;;;;;6171301;23;20071;-75
2023/05/18 04:59:46;;;;;;;0.10;0.10;;;;;;;;;;6193918;23;20342;-75
2023/05/18 05:02:31;;;;;;;0.10;0.10;;;;;;;;;;6193517;23;20020;-75
2023/05/18 05:05:17;;;;;;;0.17;0.17;;;;;;;;;;6193911;23;20304;-76
2023/05/18 05:08:05;;;;;;;0.10;0.10;;;;;;;;;;6172731;23;20055;-75
2023/05/18 05:10:51;;;;;;;0.10;0.10;;;;;;;;;;6172212;23;20055;-74
2023/05/18 05:13:37;;;;;;;0.10;0.10;;;;;;;;;;6194868;23;20213;-75
2023/05/18 05:16:22;;;;;;;0.10;0.10;;;;;;;;;;6171541;23;20485;-75
2023/05/18 05:19:08;;;;;;;0.10;0.10;;;;;;;;;;6174541;23;20373;-76
2023/05/18 05:21:54;;;;;;;0.10;0.10;;;;;;;;;;6171950;23;20011;-75
2023/05/18 05:24:40;;;;;;;0.10;0.10;;;;;;;;;;6170386;23;20040;-75
2023/05/18 05:27:26;;;;;;;0.10;0.10;;;;;;;;;;6172643;23;20190;-75
2023/05/18 05:30:11;;;;;;;0.10;0.10;;;;;;;;;;6170463;23;20021;-75
2023/05/18 05:32:58;;;;;;;0.20;0.20;;;;;;;;;;6172457;23;20390;-75
2023/05/18 05:35:45;;;;;;;0.10;0.10;;;;;;;;;;6174075;23;20013;-75
2023/05/18 05:38:31;;;;;;;0.10;0.10;;;;;;;;;;6173547;23;20531;-75
2023/05/18 05:41:17;;;;;;;0.10;0.10;;;;;;;;;;6171621;23;20102;-76
2023/05/18 05:44:03;;;;;;;0.10;0.10;;;;;;;;;;6152548;23;20012;-76
2023/05/18 05:46:49;;;;;;;0.10;0.10;;;;;;;;;;6173472;23;20040;-76
2023/05/18 05:49:35;;;;;;;0.10;0.10;;;;;;;;;;6152868;23;20016;-75
2023/05/18 05:52:21;;;;;;;0.15;0.15;;;;;;;;;;6171672;23;20087;-75
2023/05/18 05:55:07;;;;;;;0.10;0.10;;;;;;;;;;6170915;23;20024;-75
2023/05/18 05:57:54;;;;;;;0.10;0.10;;;;;;;;;;6169592;23;20043;-75
2023/05/18 06:00:41;;;;;;;0.10;0.10;;;;;;;;;;6170226;23;20110;-75
2023/05/18 06:03:28;;;;;;;0.10;0.10;;;;;;;;;;6192035;23;20536;-74
2023/05/18 06:06:16;;;;;;;0.10;0.10;;;;;;;;;;6170485;23;20013;-75
2023/05/18 06:09:03;;;;;;;0.10;0.10;;;;;;;;;;6170490;23;20078;-75
2023/05/18 06:11:49;;;;;;;0.15;0.15;;;;;;;;;;6192866;23;20067;-75
2023/05/18 06:14:36;;;;;;;0.20;0.20;;;;;;;;;;6192406;23;20082;-75
2023/05/18 06:17:26;;;;;;;0.10;0.10;;;;;;;;;;6169264;23;20331;-75
2023/05/18 06:20:12;;;;;;;0.20;0.20;;;;;;;;;;6171488;23;20016;-75
2023/05/18 06:22:58;;;;;;;0.10;0.10;;;;;;;;;;6169938;23;20021;-75
2023/05/18 06:26:03;;;;;;;0.20;0.20;;;;;;;;;;6169882;23;20017;-75
2023/05/18 06:29:08;;;;;;;0.10;0.10;;;;;;;;;;6173980;23;20028;-75
2023/05/18 06:32:14;;;;;;;0.10;0.10;;;;;;;;;;6172270;23;20405;-75
2023/05/18 06:35:02;;;;;;;0.10;0.10;;;;;;;;;;6171404;23;20475;-74
2023/05/18 06:37:51;;;;;;;0.10;0.10;;;;;;;;;;6151391;23;20189;-75
2023/05/18 06:40:36;;;;;;;0.10;0.10;;;;;;;;;;6171041;23;20020;-75
2023/05/18 06:43:25;;;;;;;0.10;0.10;;;;;;;;;;6170290;23;20448;-76
2023/05/18 06:46:20;;;;;;;0.13;0.13;;;;;;;;;;6173562;23;20017;-76
2023/05/18 06:49:07;;;;;;;0.10;0.10;;;;;;;;;;6170477;23;20051;-76
2023/05/18 06:51:52;;;;;;;0.10;0.10;;;;;;;;;;6169480;23;20031;-76
2023/05/18 06:54:38;;;;;;;0.20;0.20;;;;;;;;;;6190336;23;20615;-76
2023/05/18 06:57:24;;;;;;;0.13;0.13;;;;;;;;;;6169669;23;20077;-76
2023/05/18 07:00:11;;;;;;;0.10;0.10;;;;;;;;;;6172249;23;20027;-76
2023/05/18 07:02:57;;;;;;;0.10;0.10;;;;;;;;;;6170181;23;20012;-76
2023/05/18 07:05:43;;;;;;;0.10;0.10;;;;;;;;;;6170392;23;20012;-76
2023/05/18 07:08:29;;;;;;;0.10;0.10;;;;;;;;;;6191931;23;20504;-76
2023/05/18 07:11:15;;;;;;;0.10;0.10;;;;;;;;;;6192948;23;20528;-76
2023/05/18 07:14:00;;;;;;;0.10;0.10;;;;;;;;;;6193115;23;20020;-76
2023/05/18 07:16:46;;;;;;;0.10;0.10;;;;;;;;;;6193529;23;20016;-77
2023/05/18 07:19:33;;;;;;;0.10;0.10;;;;;;;;;;6192678;23;20027;-76
2023/05/18 07:22:19;;;;;;;0.10;0.10;;;;;;;;;;6192960;23;20017;-76
2023/05/18 07:25:05;;;;;;;0.10;0.10;;;;;;;;;;6194026;23;20017;-76
2023/05/18 07:27:53;;;;;;;0.10;0.10;;;;;;;;;;6171205;23;20024;-76
2023/05/18 07:30:38;;;;;;;0.10;0.10;;;;;;;;;;6194837;23;20409;-76
2023/05/18 07:33:24;;;;;;;0.10;0.10;;;;;;;;;;6192839;23;20023;-76
2023/05/18 07:36:10;;;;;;;0.10;0.10;;;;;;;;;;6194515;23;20024;-76
2023/05/18 07:38:56;;;;;;;0.10;0.10;;;;;;;;;;6192472;23;20031;-76
2023/05/18 07:41:42;;;;;;;0.10;0.10;;;;;;;;;;6192708;23;20012;-76
2023/05/18 07:44:27;;;;;;;0.10;0.10;;;;;;;;;;6191742;23;20016;-76
2023/05/18 07:47:13;;;;;;;0.10;0.10;;;;;;;;;;6172364;23;20012;-76
2023/05/18 07:49:59;;;;;;;0.10;0.10;;;;;;;;;;6190799;23;20021;-76
2023/05/18 07:52:45;;;;;;;0.10;0.10;;;;;;;;;;6190534;23;20500;-77
2023/05/18 07:55:31;;;;;;;0.10;0.10;;;;;;;;;;6192113;23;20694;-77
2023/05/18 07:58:17;;;;;;;0.10;0.10;;;;;;;;;;6193433;23;20063;-77
2023/05/18 08:01:05;;;;;;;0.10;0.10;;;;;;;;;;6192916;23;20051;-77
2023/05/18 08:03:51;;;;;;;0.10;0.10;;;;;;;;;;6193205;23;20354;-77
2023/05/18 08:06:37;;;;;;;0.10;0.10;;;;;;;;;;6192205;23;20012;-77
2023/05/18 08:09:22;;;;;;;0.20;0.20;;;;;;;;;;6192491;23;20048;-77
2023/05/18 08:12:08;;;;;;;0.10;0.10;;;;;;;;;;6193299;23;20016;-77
2023/05/18 08:14:54;;;;;;;0.10;0.10;;;;;;;;;;6190937;23;20013;-77
2023/05/18 08:17:40;;;;;;;0.10;0.10;;;;;;;;;;6191224;23;20013;-77
2023/05/18 08:20:28;;;;;;;0.10;0.10;;;;;;;;;;6193657;23;20024;-77
2023/05/18 08:23:16;;;;;;;0.10;0.10;;;;;;;;;;6192155;23;20016;-77
2023/05/18 08:26:03;;;;;;;0.10;0.10;;;;;;;;;;6169171;23;20036;-77
2023/05/18 08:28:48;;;;;;;0.10;0.10;;;;;;;;;;6194282;23;20090;-77
2023/05/18 08:31:35;;;;;;;0.10;0.10;;;;;;;;;;6193539;23;20058;-77
2023/05/18 08:34:21;;;;;;;0.10;0.10;;;;;;;;;;6193715;23;20021;-77
2023/05/18 08:37:10;;;;;;;0.13;0.13;;;;;;;;;;6192751;23;20091;-77
2023/05/18 08:39:56;;;;;;;0.10;0.10;;;;;;;;;;6195153;23;20071;-77
2023/05/18 08:42:47;;;;;;;0.10;0.10;;;;;;;;;;6194235;23;20051;-77
2023/05/18 08:45:36;;;;;;;0.20;0.17;;;;;;;;;;6172530;23;20108;-77
2023/05/18 08:48:22;;;;;;;0.10;0.10;;;;;;;;;;6195287;23;20446;-77
2023/05/18 08:51:09;;;;;;;0.10;0.10;;;;;;;;;;6193585;23;20020;-77
2023/05/18 08:53:55;;;;;;;0.10;0.10;;;;;;;;;;6191214;23;20012;-77
2023/05/18 08:56:40;;;;;;;0.10;0.10;;;;;;;;;;6192859;23;20024;-77
2023/05/18 08:59:29;;;;;;;0.10;0.10;;;;;;;;;;6193670;23;20748;-77
2023/05/18 09:02:15;;;;;;;0.10;0.10;;;;;;;;;;6193632;23;20021;-77
2023/05/18 09:05:01;;;;;;;0.10;0.10;;;;;;;;;;6194814;23;20159;-77
2023/05/18 09:07:49;;;;;;;0.10;0.10;;;;;;;;;;6167737;23;20047;-78
2023/05/18 09:10:35;;;;;;;0.10;0.10;;;;;;;;;;6174949;23;20013;-77
2023/05/18 09:13:21;;;;;;;0.20;0.20;;;;;;;;;;6193437;23;20367;-77
2023/05/18 09:16:07;;;;;;;0.10;0.10;;;;;;;;;;6193250;23;20217;-77
2023/05/18 09:18:53;;;;;;;0.10;0.10;;;;;;;;;;6194430;23;20095;-77
2023/05/18 09:21:39;;;;;;;0.10;0.10;;;;;;;;;;6195161;23;20039;-77
2023/05/18 09:24:25;;;;;;;0.10;0.10;;;;;;;;;;6171752;23;20016;-77
2023/05/18 09:27:11;;;;;;;0.10;0.10;;;;;;;;;;6195218;23;20040;-77
2023/05/18 09:29:57;;;;;;;0.10;0.10;;;;;;;;;;6193800;23;20509;-77
2023/05/18 09:32:45;;;;;;;0.10;0.10;;;;;;;;;;6194167;23;20019;-77
2023/05/18 09:35:31;;;;;;;0.10;0.10;;;;;;;;;;6192005;23;20383;-78
2023/05/18 09:38:20;;;;;;;0.10;0.10;;;;;;;;;;6165273;23;20361;-77
2023/05/18 09:41:10;;;;;;;0.10;0.10;;;;;;;;;;6191599;23;20013;-78
2023/05/18 09:43:55;;;;;;;0.10;0.10;;;;;;;;;;6191411;23;20043;-77
2023/05/18 09:46:41;;;;;;;0.10;0.10;;;;;;;;;;6195144;23;20205;-77
2023/05/18 09:49:30;;;;;;;0.10;0.10;;;;;;;;;;6174188;23;20016;-77
2023/05/18 09:52:16;;;;;;;0.10;0.10;;;;;;;;;;6173523;23;20017;-78
2023/05/18 09:55:03;;;;;;;0.10;0.10;;;;;;;;;;6193758;23;20100;-77
2023/05/18 09:57:49;;;;;;;0.10;0.10;;;;;;;;;;6192941;23;20020;-77
2023/05/18 10:00:52;;;;;;;0.10;0.10;;;;;;;;;;6193236;23;20124;-77
2023/05/18 10:03:39;;;;;;;0.10;0.10;;;;;;;;;;6193543;23;20017;-78
2023/05/18 10:06:26;;;;;;;0.10;0.10;;;;;;;;;;6172224;23;20355;-77
2023/05/18 10:09:15;;;;;;;0.10;0.10;;;;;;;;;;6168607;23;20071;-77
2023/05/18 10:12:01;;;;;;;0.10;0.10;;;;;;;;;;6172372;23;20295;-77
2023/05/18 10:14:47;;;;;;;0.10;0.10;;;;;;;;;;6192731;23;20462;-77
2023/05/18 10:17:34;;;;;;;0.10;0.10;;;;;;;;;;6191692;23;20023;-77
2023/05/18 10:20:22;;;;;;;0.10;0.10;;;;;;;;;;6195324;23;20056;-77
2023/05/18 10:23:11;;;;;;;0.10;0.10;;;;;;;;;;6191848;23;20023;-77
2023/05/18 10:25:57;;;;;;;0.10;0.10;;;;;;;;;;6170138;23;20027;-77
2023/05/18 10:28:46;;;;;;;0.10;0.10;;;;;;;;;;6192122;23;20350;-77
2023/05/18 10:31:34;;;;;;;0.10;0.10;;;;;;;;;;6191049;23;20398;-77
2023/05/18 10:34:23;;;;;;;0.10;0.10;;;;;;;;;;6192069;23;20059;-77
2023/05/18 10:37:09;;;;;;;0.10;0.10;;;;;;;;;;6194852;23;20087;-77
2023/05/18 10:39:55;;;;;;;0.20;0.20;;;;;;;;;;6194362;23;20207;-77
2023/05/18 10:42:41;;;;;;;0.10;0.10;;;;;;;;;;6192362;23;20028;-78
2023/05/18 10:45:27;;;;;;;0.20;0.20;;;;;;;;;;6192499;23;20095;-78
2023/05/18 10:48:15;;;;;;;0.10;0.10;;;;;;;;;;6194151;23;20071;-78
2023/05/18 10:51:04;;;;;;;0.10;0.10;;;;;;;;;;6194414;23;20009;-77
2023/05/18 10:53:50;;;;;;;0.10;0.10;;;;;;;;;;6190662;23;20012;-78
2023/05/18 10:56:36;;;;;;;0.13;0.13;;;;;;;;;;6191371;23;20103;-77
2023/05/18 10:59:22;;;;;;;0.10;0.10;;;;;;;;;;6191465;23;20226;-77
2023/05/18 11:02:09;;;;;;;0.20;0.20;;;;;;;;;;6191730;23;20017;-78
2023/05/18 11:04:55;;;;;;;0.20;0.20;;;;;;;;;;6190315;23;20031;-78
2023/05/18 11:07:43;;;;;;;0.20;0.20;;;;;;;;;;6192558;23;20020;-78
2023/05/18 11:10:40;;;;;;;0.28;0.28;;;;;;;;;;6193733;23;20023;-78
2023/05/18 11:13:27;;;;;;;0.15;0.15;;;;;;;;;;6169780;23;20008;-78
2023/05/18 11:16:14;;;;;;;0.10;0.10;;;;;;;;;;6191122;23;20013;-78
2023/05/18 11:19:06;;;;;;;0.20;0.20;;;;;;;;;;6169507;23;20375;-78
2023/05/18 11:21:52;;;;;;;0.10;0.10;;;;;;;;;;6190738;23;20721;-78
2023/05/18 11:24:39;;;;;;;0.10;0.10;;;;;;;;;;6191471;23;20001;-78
2023/05/18 11:27:27;;;;;;;0.10;0.10;;;;;;;;;;6190627;23;20474;-78
2023/05/18 11:30:43;;;;;;;0.20;0.20;;;;;;;;;;6194135;23;20070;-78
2023/05/18 11:33:29;;;;;;;0.20;0.20;;;;;;;;;;6192728;23;20078;-78
2023/05/18 11:36:21;;;;;;;0.32;0.32;;;;;;;;;;6192307;23;20417;-78
2023/05/18 11:39:07;;;;;;;0.15;0.15;;;;;;;;;;6190903;23;20266;-78
2023/05/18 11:42:13;;;;;;;0.20;0.20;;;;;;;;;;6172359;23;20016;-78
2023/05/18 11:45:05;;;;;;;0.20;0.20;;;;;;;;;;6193145;23;20040;-78
2023/05/18 11:47:55;;;;;;;0.20;0.20;;;;;;;;;;6191991;23;20013;-78
2023/05/18 11:50:44;;;;;;;0.20;0.20;;;;;;;;;;6194214;23;20437;-78
2023/05/18 11:53:30;;;;;;;0.20;0.20;;;;;;;;;;6194449;23;20104;-78
2023/05/18 11:56:16;;;;;;;0.25;0.25;;;;;;;;;;6194361;23;20017;-78
2023/05/18 11:59:11;;;;;;;0.20;0.20;;;;;;;;;;6191996;23;20075;-78
2023/05/18 12:01:59;;;;;;;0.15;0.15;;;;;;;;;;6192071;23;20051;-79
2023/05/18 12:04:47;;;;;;;0.20;0.20;;;;;;;;;;6192120;23;20413;-79
2023/05/18 12:07:34;;;;;;;0.15;0.15;;;;;;;;;;6194280;23;20426;-78
2023/05/18 12:10:20;;;;;;;0.10;0.10;;;;;;;;;;6149738;23;20434;-78
2023/05/18 12:13:06;;;;;;;0.15;0.15;;;;;;;;;;6194745;23;20350;-78
2023/05/18 12:15:53;;;;;;;0.10;0.10;;;;;;;;;;6192737;23;20016;-78
2023/05/18 12:18:39;;;;;;;0.10;0.10;;;;;;;;;;6189913;23;20040;-78
2023/05/18 12:21:25;;;;;;;0.10;0.10;;;;;;;;;;6192274;23;20024;-78
2023/05/18 12:24:10;;;;;;;0.10;0.10;;;;;;;;;;6194607;23;20583;-79
2023/05/18 12:26:59;;;;;;;0.20;0.20;;;;;;;;;;6194786;23;20013;-79
2023/05/18 12:29:45;;;;;;;0.10;0.10;;;;;;;;;;6192065;23;20023;-80
2023/05/18 12:32:33;;;;;;;0.20;0.20;;;;;;;;;;6169858;23;20016;-80
2023/05/18 12:35:23;;;;;;;0.20;0.20;;;;;;;;;;6191262;23;20024;-80
2023/05/18 12:38:08;;;;;;;0.20;0.20;;;;;;;;;;6190672;23;20021;-80
2023/05/18 12:40:55;;;;;;;0.10;0.10;;;;;;;;;;6192471;23;20021;-80
2023/05/18 12:43:41;;;;;;;0.10;0.10;;;;;;;;;;6173370;23;20019;-79
2023/05/18 12:46:27;;;;;;;0.10;0.10;;;;;;;;;;6193071;23;20016;-80
2023/05/18 12:49:13;;;;;;;0.10;0.10;;;;;;;;;;6194185;23;20021;-80
2023/05/18 12:52:06;;;;;;;0.10;0.10;;;;;;;;;;6193590;23;20020;-80
2023/05/18 12:54:59;;;;;;;0.10;0.10;;;;;;;;;;6193588;23;20017;-80
2023/05/18 12:57:45;;;;;;;0.10;0.10;;;;;;;;;;6192650;23;20028;-79
2023/05/18 13:00:32;;;;;;;0.10;0.10;;;;;;;;;;6192426;23;20153;-80
2023/05/18 13:03:21;;;;;;;0.10;0.10;;;;;;;;;;6190584;23;20027;-80
2023/05/18 13:06:08;;;;;;;0.03;0.03;;;;;;;;;;6191170;23;20024;-79
2023/05/18 13:08:57;;;;;;;0.10;0.10;;;;;;;;;;6185501;22;20013;-78
2023/05/18 13:11:47;;;;;;;0.10;0.10;;;;;;;;;;6194088;23;20039;-78
2023/05/18 13:14:36;;;;;;;0.20;0.20;;;;;;;;;;6190283;23;20020;-79
2023/05/18 13:17:22;;;;;;;0.10;0.10;;;;;;;;;;6191390;23;20047;-78
2023/05/18 13:20:14;;;;;;;0.20;0.20;;;;;;;;;;6190819;23;20028;-79
2023/05/18 13:23:04;;;;;;;0.10;0.10;;;;;;;;;;6193969;23;20437;-79
2023/05/18 13:25:50;;;;;;;;;;;;;;;;;;6174158;23;20385;-79
2023/05/18 13:28:36;;;;;;;0.15;0.15;;;;;;;;;;6194890;23;20019;-79
2023/05/18 13:31:22;;;;;;;0.10;0.10;;;;;;;;;;6193446;23;20112;-79
2023/05/18 13:34:08;;;;;;;0.10;0.10;;;;;;;;;;6191028;23;20024;-79
2023/05/18 13:36:53;;;;;;;0.10;0.10;;;;;;;;;;6173376;23;20021;-79
2023/05/18 13:39:39;;;;;;;0.10;0.10;;;;;;;;;;6192028;23;20472;-79
2023/05/18 13:42:25;;;;;;;0.10;0.10;;;;;;;;;;6193122;23;20429;-79
2023/05/18 13:45:11;;;;;;;0.10;0.10;;;;;;;;;;6192668;23;20078;-79
2023/05/18 13:47:57;;;;;;;0.10;0.10;;;;;;;;;;6153144;23;20020;-79
2023/05/18 13:50:43;;;;;;;0.10;0.10;;;;;;;;;;6193478;23;20619;-79
2023/05/18 13:53:29;;;;;;;0.10;0.10;;;;;;;;;;6193584;23;20052;-79
2023/05/18 13:56:15;;;;;;;0.10;0.10;;;;;;;;;;6178307;23;20580;-79
2023/05/18 13:59:01;;;;;;;0.10;0.10;;;;;;;;;;6193717;23;20078;-79
2023/05/18 14:01:46;;;;;;;0.20;0.20;;;;;;;;;;6194766;23;20090;-79
2023/05/18 14:13:08;;;;;;;0.10;0.10;;;;;;;;;;6168880;22;20029;-78
2023/05/18 14:15:54;;;;;;;0.10;0.10;;;;;;;;;;6110629;23;20037;-81
2023/05/18 14:18:40;;;;;;;0.10;0.10;;;;;;;;;;6131006;23;20356;-78
2023/05/18 14:21:26;;;;;;;0.10;0.10;;;;;;;;;;6136873;23;20084;-78
2023/05/18 14:24:13;;;;;;;0.60;0.60;;;;;;;;;;6136703;23;20455;-78
2023/05/18 14:26:59;;;;;;;0.10;0.10;;;;;;;;;;6135955;23;20093;-78
2023/05/18 14:29:48;;;;;;;0.17;0.17;;;;;;;;;;6137046;23;20080;-79
2023/05/18 14:32:33;;;;;;;0.10;0.10;;;;;;;;;;6135826;23;20355;-78
2023/05/18 14:35:19;;;;;;;0.10;0.10;;;;;;;;;;6137516;23;20009;-79
2023/05/18 14:38:05;;;;;;;0.10;0.10;;;;;;;;;;6136096;23;20053;-78
2023/05/18 14:40:50;;;;;;;0.10;0.10;;;;;;;;;;6134876;23;20369;-79
2023/05/18 14:43:36;;;;;;;0.00;0.00;;;;;;;;;;6134794;23;20020;-80
2023/05/18 14:46:22;;;;;;;0.10;0.10;;;;;;;;;;6114692;23;20497;-80
2023/05/18 14:49:08;;;;;;;0.10;0.10;;;;;;;;;;6138464;23;20014;-79
2023/05/18 14:51:53;;;;;;;0.10;0.10;;;;;;;;;;6100112;23;20018;-79
2023/05/18 14:54:41;;;;;;;0.10;0.10;;;;;;;;;;6136787;23;20466;-80
2023/05/18 14:57:26;;;;;;;0.10;0.10;;;;;;;;;;6135004;23;20021;-79
2023/05/18 15:05:37;;;;;;;0.10;0.10;;;;;;;;;;6172540;22;20501;-79
2023/05/18 15:08:23;;;;;;;0.10;0.10;;;;;;;;;;6180938;23;20071;-78
2023/05/18 15:11:11;;;;;;;0.20;0.20;;;;;;;;;;6186662;23;20024;-79
2023/05/18 15:17:09;;;;;;;0.10;0.10;;;;;;;;;;6176421;22;20013;-78
2023/05/18 15:19:55;;;;;;;0.10;0.10;;;;;;;;;;6172717;23;20028;-78
2023/05/18 15:22:42;;;;;;;0.10;0.10;;;;;;;;;;6174332;23;20017;-78
2023/05/18 15:25:31;;;;;;;0.20;0.20;;;;;;;;;;6150826;23;20019;-79
2023/05/18 15:28:16;;;;;;;0.10;0.10;;;;;;;;;;6172005;23;20013;-78
2023/05/18 15:31:16;;;;;;;0.17;0.17;;;;;;;;;;6173125;23;20009;-78
2023/05/18 15:34:02;;;;;;;0.10;0.10;;;;;;;;;;6169710;23;20275;-79
2023/05/18 15:36:48;;;;;;;0.10;0.10;;;;;;;;;;6168163;23;20426;-78
2023/05/18 15:39:35;;;;;;;0.00;0.00;;;;;;;;;;6143619;23;20128;-78
2023/05/18 15:42:21;;;;;;;0.13;0.13;;;;;;;;;;6165266;23;20013;-78
2023/05/18 15:45:07;;;;;;;0.10;0.10;;;;;;;;;;6145350;23;20507;-78
2023/05/18 15:47:53;;;;;;;0.10;0.10;;;;;;;;;;6166956;23;20048;-78
2023/05/18 15:50:46;;;;;;;0.10;0.10;;;;;;;;;;6146042;23;20013;-78
2023/05/18 15:53:31;;;;;;;0.20;0.20;;;;;;;;;;6166841;23;20385;-78
2023/05/18 15:56:17;;;;;;;0.10;0.10;;;;;;;;;;6165619;23;20009;-78
2023/05/18 15:59:05;;;;;;;0.10;0.10;;;;;;;;;;6143752;23;20009;-78
2023/05/18 16:01:51;;;;;;;0.10;0.10;;;;;;;;;;6165213;23;20013;-78
2023/05/18 16:04:37;;;;;;;0.10;0.10;;;;;;;;;;6164060;23;20013;-78
2023/05/18 16:07:22;;;;;;;0.10;0.10;;;;;;;;;;6165785;23;20013;-78
2023/05/18 16:10:08;;;;;;;0.10;0.10;;;;;;;;;;6166774;23;20071;-78
2023/05/18 16:12:54;;;;;;;0.10;0.10;;;;;;;;;;6165818;23;20018;-78
2023/05/18 16:15:39;;;;;;;0.10;0.10;;;;;;;;;;6144484;23;20060;-78
2023/05/18 16:18:25;;;;;;;0.15;0.15;;;;;;;;;;6164733;23;20025;-78
2023/05/18 16:21:12;;;;;;;0.10;0.10;;;;;;;;;;6164407;23;20325;-78
2023/05/18 16:23:58;;;;;;;0.10;0.10;;;;;;;;;;6144244;23;20017;-78
2023/05/18 16:26:43;;;;;;;0.10;0.10;;;;;;;;;;6165063;23;20024;-78
2023/05/18 16:29:29;;;;;;;0.10;0.10;;;;;;;;;;6167403;23;20017;-78
2023/05/18 16:32:15;;;;;;;0.08;0.08;;;;;;;;;;6166595;23;20017;-78
2023/05/18 16:35:02;;;;;;;0.10;0.10;;;;;;;;;;6166699;23;20457;-78
2023/05/18 16:37:47;;;;;;;0.10;0.10;;;;;;;;;;6142745;23;20442;-78
2023/05/18 16:40:33;;;;;;;0.10;0.10;;;;;;;;;;6165634;23;20492;-78
2023/05/18 16:43:19;;;;;;;0.00;0.00;;;;;;;;;;6163789;23;20379;-78
2023/05/18 16:46:04;;;;;;;0.00;0.00;;;;;;;;;;6115398;23;20010;-78
2023/05/18 16:48:50;;;;;;;0.10;0.10;;;;;;;;;;6146429;23;20321;-78
2023/05/18 16:51:36;;;;;;;0.10;0.10;;;;;;;;;;6119391;23;20013;-78
2023/05/18 16:54:22;;;;;;;0.10;0.10;;;;;;;;;;6020900;23;20041;-78
2023/05/18 16:57:11;;;;;;;0.00;0.00;;;;;;;;;;6164855;23;20009;-77
2023/05/18 16:59:58;;;;;;;0.08;0.08;;;;;;;;;;6126053;23;20013;-78